Airfield :
LOGIN :

Register | Disclaimer

   EN    FR    IT 

 










Legend :    VFR   Marginal VFR   IFR   Intensive IFR   Very Intensive IFR
Visi :
Ceiling :
>= 8 km
>= 3000ft
5 to 8 km
1000 to 3000 ft
1500m to 5 km
500 to 1000 ft
800 to 1500m
200 to 500 ft
< 800m
< 200 ft
Symbols :   Thunderstorms  Fog  Heavy snow  Heavy precipitations  Wind > 20 kt
SIGMETs :     Misc.  Thunderstorms  Icing  Turbulence  Mountain Waves  Volcanic Ashes






- Airport Elevation : 776 ft
- IATA code : RMS


ETAR - Ramstein Air Base

CURRENT METAR :
  • 181256Z AUTO 16003KT 9999 -DZ SCT075 28/09 A3014 RMK AO2 SLP203 P0000 T02820090 $

EXPIRED METARs :
  • 181151Z AUTO 11005KT 9999 -DZ CLR 27/09 A3015 RMK AO2 DZE1058DZB11E48DZB51 SLP205 $
  • 181111Z AUTO 00000KT 9999 -DZ CLR 27/10 A3016 RMK AO2 DZE1058DZB11 SLP210 $
  • 181058Z AUTO 13003KT 9999 FEW060 26/09 A3017 RMK AO2 DZE58 SLP213 $
  • 181056Z AUTO 07004KT 9999 -DZ FEW065 FEW180 26/10 A3017 RMK AO2 DZB46 SLP213 P0000 T02620095 $
  • 181046Z AUTO 00000KT 9999 -DZ CLR 26/10 A3017 RMK AO2 DZB46 SLP212 $

TAF TAF ETAR
Valid from the 18 at 10:00 until the 19 at 16:00 UTC


181000Z 1810/1916 12009KT 9999 SKC QNH3017INS
BECMG 1817/1818 10006KT 9999 SKC QNH3013INS
BECMG 1909/1910 22010G20KT 9999 SCT040 BKN060 510004 QNH3015INS
TEMPO 1912/1916 VRB12G25KT 8000 -TSRA BKN040CB TX29/1815Z TN10/1902Z



MET'MAP, your aeronautical weather chart ! - Copyright ORBIFLY December 2007 - Disclaimer

ORBIFLY MET'MAP TEAM :

Programming & Development : Alexandra Zaïnal
Original concept : Baudouin d'Aumeries
Technical & hardware support : Manuel Goepfert
Assistance : Marc-Olivier Méhu

Contact : metmap@orbifly.com




SOURCES & CREDITS :

   NOAA